sensor_id;sensor_type;location;lat;lon;timestamp;P1;durP1;ratioP1;P2;durP2;ratioP2
63320;SDS011;49449;48.800;9.534;2023-06-19T00:01:19;7.30;;;6.57;;
63320;SDS011;49449;48.800;9.534;2023-06-19T00:03:47;7.40;;;6.75;;
63320;SDS011;49449;48.800;9.534;2023-06-19T00:06:15;7.45;;;6.60;;
63320;SDS011;49449;48.800;9.534;2023-06-19T00:08:43;6.55;;;5.95;;
63320;SDS011;49449;48.800;9.534;2023-06-19T00:11:11;6.65;;;5.75;;
63320;SDS011;49449;48.800;9.534;2023-06-19T00:13:40;7.15;;;6.47;;
63320;SDS011;49449;48.800;9.534;2023-06-19T00:16:08;7.53;;;6.72;;
63320;SDS011;49449;48.800;9.534;2023-06-19T00:18:36;6.50;;;5.90;;
63320;SDS011;49449;48.800;9.534;2023-06-19T00:21:06;7.30;;;6.60;;
63320;SDS011;49449;48.800;9.534;2023-06-19T00:23:34;6.70;;;5.55;;
63320;SDS011;49449;48.800;9.534;2023-06-19T00:26:02;6.65;;;5.30;;
63320;SDS011;49449;48.800;9.534;2023-06-19T00:28:30;5.82;;;5.32;;
63320;SDS011;49449;48.800;9.534;2023-06-19T00:31:00;5.53;;;5.03;;
63320;SDS011;49449;48.800;9.534;2023-06-19T00:33:27;6.72;;;5.75;;
63320;SDS011;49449;48.800;9.534;2023-06-19T00:35:55;6.10;;;5.57;;
63320;SDS011;49449;48.800;9.534;2023-06-19T00:38:23;6.10;;;5.50;;
63320;SDS011;49449;48.800;9.534;2023-06-19T00:40:51;6.50;;;6.00;;
63320;SDS011;49449;48.800;9.534;2023-06-19T00:43:18;6.82;;;5.95;;
63320;SDS011;49449;48.800;9.534;2023-06-19T00:45:46;7.22;;;6.10;;
63320;SDS011;49449;48.800;9.534;2023-06-19T00:48:15;8.18;;;7.38;;
63320;SDS011;49449;48.800;9.534;2023-06-19T00:50:43;7.25;;;6.55;;
63320;SDS011;49449;48.800;9.534;2023-06-19T00:53:11;7.47;;;6.78;;
63320;SDS011;49449;48.800;9.534;2023-06-19T00:55:40;7.53;;;6.78;;
63320;SDS011;49449;48.800;9.534;2023-06-19T00:58:09;7.65;;;6.95;;
63320;SDS011;49449;48.800;9.534;2023-06-19T01:00:37;7.40;;;6.63;;
63320;SDS011;49449;48.800;9.534;2023-06-19T01:03:05;7.53;;;6.70;;
63320;SDS011;49449;48.800;9.534;2023-06-19T01:05:34;8.30;;;6.43;;
63320;SDS011;49449;48.800;9.534;2023-06-19T01:08:03;6.85;;;6.18;;
63320;SDS011;49449;48.800;9.534;2023-06-19T01:10:38;6.65;;;6.05;;
63320;SDS011;49449;48.800;9.534;2023-06-19T01:13:10;6.90;;;6.30;;
63320;SDS011;49449;48.800;9.534;2023-06-19T01:15:44;6.55;;;5.95;;
63320;SDS011;49449;48.800;9.534;2023-06-19T01:18:13;6.72;;;6.13;;
63320;SDS011;49449;48.800;9.534;2023-06-19T01:20:44;6.38;;;5.53;;
63320;SDS011;49449;48.800;9.534;2023-06-19T01:23:13;6.10;;;5.50;;
63320;SDS011;49449;48.800;9.534;2023-06-19T01:25:41;6.78;;;5.45;;
63320;SDS011;49449;48.800;9.534;2023-06-19T01:28:09;6.78;;;5.93;;
63320;SDS011;49449;48.800;9.534;2023-06-19T01:30:39;6.45;;;5.85;;
63320;SDS011;49449;48.800;9.534;2023-06-19T01:33:09;7.07;;;5.75;;
63320;SDS011;49449;48.800;9.534;2023-06-19T01:35:40;5.90;;;5.38;;
63320;SDS011;49449;48.800;9.534;2023-06-19T01:38:10;6.70;;;6.10;;
63320;SDS011;49449;48.800;9.534;2023-06-19T01:40:41;7.03;;;6.32;;
63320;SDS011;49449;48.800;9.534;2023-06-19T01:43:09;6.50;;;5.90;;
63320;SDS011;49449;48.800;9.534;2023-06-19T01:45:38;6.78;;;5.55;;
63320;SDS011;49449;48.800;9.534;2023-06-19T01:48:07;6.38;;;5.55;;
63320;SDS011;49449;48.800;9.534;2023-06-19T01:50:35;6.47;;;5.88;;
63320;SDS011;49449;48.800;9.534;2023-06-19T01:53:03;6.43;;;5.78;;
63320;SDS011;49449;48.800;9.534;2023-06-19T01:55:31;6.43;;;5.82;;
63320;SDS011;49449;48.800;9.534;2023-06-19T01:58:00;6.07;;;5.57;;
63320;SDS011;49449;48.800;9.534;2023-06-19T02:00:28;6.38;;;5.78;;
63320;SDS011;49449;48.800;9.534;2023-06-19T02:02:56;6.90;;;6.07;;
63320;SDS011;49449;48.800;9.534;2023-06-19T02:05:24;8.07;;;6.03;;
63320;SDS011;49449;48.800;9.534;2023-06-19T02:07:52;7.20;;;6.40;;
63320;SDS011;49449;48.800;9.534;2023-06-19T02:10:20;5.78;;;5.28;;
63320;SDS011;49449;48.800;9.534;2023-06-19T02:12:48;5.85;;;5.30;;
63320;SDS011;49449;48.800;9.534;2023-06-19T02:15:17;6.60;;;5.90;;
63320;SDS011;49449;48.800;9.534;2023-06-19T02:17:45;5.90;;;5.32;;
63320;SDS011;49449;48.800;9.534;2023-06-19T02:20:13;5.57;;;4.90;;
63320;SDS011;49449;48.800;9.534;2023-06-19T02:22:41;6.15;;;4.68;;
63320;SDS011;49449;48.800;9.534;2023-06-19T02:25:09;7.28;;;5.53;;
63320;SDS011;49449;48.800;9.534;2023-06-19T02:27:37;6.03;;;5.35;;
63320;SDS011;49449;48.800;9.534;2023-06-19T02:30:06;6.90;;;6.20;;
63320;SDS011;49449;48.800;9.534;2023-06-19T02:32:36;6.22;;;5.65;;
63320;SDS011;49449;48.800;9.534;2023-06-19T02:35:04;6.97;;;6.28;;
63320;SDS011;49449;48.800;9.534;2023-06-19T02:37:34;6.50;;;5.28;;
63320;SDS011;49449;48.800;9.534;2023-06-19T02:40:03;6.07;;;5.47;;
63320;SDS011;49449;48.800;9.534;2023-06-19T02:42:35;6.47;;;5.63;;
63320;SDS011;49449;48.800;9.534;2023-06-19T02:45:03;5.78;;;5.18;;
63320;SDS011;49449;48.800;9.534;2023-06-19T02:47:31;6.80;;;5.60;;
63320;SDS011;49449;48.800;9.534;2023-06-19T02:50:01;6.65;;;5.03;;
63320;SDS011;49449;48.800;9.534;2023-06-19T02:52:30;6.80;;;6.13;;
63320;SDS011;49449;48.800;9.534;2023-06-19T02:54:58;5.50;;;5.00;;
63320;SDS011;49449;48.800;9.534;2023-06-19T02:57:26;5.68;;;5.18;;
63320;SDS011;49449;48.800;9.534;2023-06-19T02:59:54;6.38;;;5.88;;
63320;SDS011;49449;48.800;9.534;2023-06-19T03:02:21;7.20;;;5.55;;
63320;SDS011;49449;48.800;9.534;2023-06-19T03:04:50;6.50;;;5.90;;
63320;SDS011;49449;48.800;9.534;2023-06-19T03:07:20;7.53;;;5.97;;
63320;SDS011;49449;48.800;9.534;2023-06-19T03:09:48;5.85;;;5.25;;
63320;SDS011;49449;48.800;9.534;2023-06-19T03:12:16;5.78;;;5.20;;
63320;SDS011;49449;48.800;9.534;2023-06-19T03:14:43;6.30;;;5.65;;
63320;SDS011;49449;48.800;9.534;2023-06-19T03:17:12;5.78;;;5.13;;
63320;SDS011;49449;48.800;9.534;2023-06-19T03:19:39;6.22;;;5.63;;
63320;SDS011;49449;48.800;9.534;2023-06-19T03:22:07;5.32;;;4.82;;
63320;SDS011;49449;48.800;9.534;2023-06-19T03:24:36;6.22;;;5.63;;
63320;SDS011;49449;48.800;9.534;2023-06-19T03:27:04;6.07;;;5.57;;
63320;SDS011;49449;48.800;9.534;2023-06-19T03:29:32;7.13;;;6.43;;
63320;SDS011;49449;48.800;9.534;2023-06-19T03:32:00;6.63;;;6.03;;
63320;SDS011;49449;48.800;9.534;2023-06-19T03:34:28;6.18;;;5.57;;
63320;SDS011;49449;48.800;9.534;2023-06-19T03:36:56;6.47;;;5.88;;
63320;SDS011;49449;48.800;9.534;2023-06-19T03:39:24;6.60;;;5.97;;
63320;SDS011;49449;48.800;9.534;2023-06-19T03:41:53;5.55;;;5.05;;
63320;SDS011;49449;48.800;9.534;2023-06-19T03:44:21;5.45;;;4.85;;
63320;SDS011;49449;48.800;9.534;2023-06-19T03:46:48;7.13;;;5.97;;
63320;SDS011;49449;48.800;9.534;2023-06-19T03:49:17;6.45;;;5.85;;
63320;SDS011;49449;48.800;9.534;2023-06-19T03:51:45;6.30;;;5.70;;
63320;SDS011;49449;48.800;9.534;2023-06-19T03:54:13;5.85;;;5.32;;
63320;SDS011;49449;48.800;9.534;2023-06-19T03:56:40;5.10;;;4.60;;
63320;SDS011;49449;48.800;9.534;2023-06-19T03:59:10;5.10;;;4.60;;
63320;SDS011;49449;48.800;9.534;2023-06-19T04:01:37;5.35;;;4.85;;
63320;SDS011;49449;48.800;9.534;2023-06-19T04:04:06;5.97;;;5.47;;
63320;SDS011;49449;48.800;9.534;2023-06-19T04:06:34;5.30;;;4.90;;
63320;SDS011;49449;48.800;9.534;2023-06-19T04:09:02;5.63;;;5.05;;
63320;SDS011;49449;48.800;9.534;2023-06-19T04:11:31;5.68;;;5.10;;
63320;SDS011;49449;48.800;9.534;2023-06-19T04:13:58;5.93;;;5.05;;
63320;SDS011;49449;48.800;9.534;2023-06-19T04:16:27;5.30;;;4.80;;
63320;SDS011;49449;48.800;9.534;2023-06-19T04:18:55;4.53;;;4.13;;
63320;SDS011;49449;48.800;9.534;2023-06-19T04:21:23;4.95;;;4.55;;
63320;SDS011;49449;48.800;9.534;2023-06-19T04:23:51;5.20;;;4.03;;
63320;SDS011;49449;48.800;9.534;2023-06-19T04:26:18;4.22;;;3.83;;
63320;SDS011;49449;48.800;9.534;2023-06-19T04:28:47;4.97;;;4.57;;
63320;SDS011;49449;48.800;9.534;2023-06-19T04:31:15;5.22;;;4.22;;
63320;SDS011;49449;48.800;9.534;2023-06-19T04:33:46;4.43;;;3.70;;
63320;SDS011;49449;48.800;9.534;2023-06-19T04:36:13;4.72;;;4.28;;
63320;SDS011;49449;48.800;9.534;2023-06-19T04:38:41;4.00;;;3.70;;
63320;SDS011;49449;48.800;9.534;2023-06-19T04:41:10;5.32;;;4.88;;
63320;SDS011;49449;48.800;9.534;2023-06-19T04:43:38;4.22;;;3.85;;
63320;SDS011;49449;48.800;9.534;2023-06-19T04:46:07;4.82;;;4.43;;
63320;SDS011;49449;48.800;9.534;2023-06-19T04:48:35;5.50;;;5.03;;
63320;SDS011;49449;48.800;9.534;2023-06-19T04:51:04;5.43;;;4.93;;
63320;SDS011;49449;48.800;9.534;2023-06-19T04:53:32;5.22;;;4.72;;
63320;SDS011;49449;48.800;9.534;2023-06-19T04:56:00;4.07;;;3.78;;
63320;SDS011;49449;48.800;9.534;2023-06-19T04:58:28;4.32;;;3.92;;
63320;SDS011;49449;48.800;9.534;2023-06-19T05:00:56;4.88;;;4.40;;
63320;SDS011;49449;48.800;9.534;2023-06-19T05:03:24;4.50;;;4.10;;
63320;SDS011;49449;48.800;9.534;2023-06-19T05:05:51;5.32;;;4.82;;
63320;SDS011;49449;48.800;9.534;2023-06-19T05:08:20;5.20;;;4.70;;
63320;SDS011;49449;48.800;9.534;2023-06-19T05:10:48;5.35;;;4.45;;
63320;SDS011;49449;48.800;9.534;2023-06-19T05:13:16;4.90;;;4.47;;
63320;SDS011;49449;48.800;9.534;2023-06-19T05:15:45;5.45;;;4.95;;
63320;SDS011;49449;48.800;9.534;2023-06-19T05:18:12;4.97;;;4.55;;
63320;SDS011;49449;48.800;9.534;2023-06-19T05:20:40;4.75;;;4.30;;
63320;SDS011;49449;48.800;9.534;2023-06-19T05:23:08;5.75;;;5.25;;
63320;SDS011;49449;48.800;9.534;2023-06-19T05:25:37;5.28;;;4.68;;
63320;SDS011;49449;48.800;9.534;2023-06-19T05:28:05;5.72;;;4.53;;
63320;SDS011;49449;48.800;9.534;2023-06-19T05:30:33;4.90;;;4.40;;
63320;SDS011;49449;48.800;9.534;2023-06-19T05:33:01;4.63;;;4.25;;
63320;SDS011;49449;48.800;9.534;2023-06-19T05:35:29;4.97;;;4.40;;
63320;SDS011;49449;48.800;9.534;2023-06-19T05:37:58;4.30;;;3.90;;
63320;SDS011;49449;48.800;9.534;2023-06-19T05:40:25;4.97;;;4.47;;
63320;SDS011;49449;48.800;9.534;2023-06-19T05:42:56;4.70;;;4.30;;
63320;SDS011;49449;48.800;9.534;2023-06-19T05:45:23;6.10;;;5.50;;
63320;SDS011;49449;48.800;9.534;2023-06-19T05:47:51;4.90;;;4.40;;
63320;SDS011;49449;48.800;9.534;2023-06-19T05:50:19;5.78;;;5.28;;
63320;SDS011;49449;48.800;9.534;2023-06-19T05:52:47;7.13;;;5.07;;
63320;SDS011;49449;48.800;9.534;2023-06-19T05:55:15;4.80;;;4.22;;
63320;SDS011;49449;48.800;9.534;2023-06-19T05:57:42;5.28;;;4.72;;
63320;SDS011;49449;48.800;9.534;2023-06-19T06:00:12;4.93;;;4.43;;
63320;SDS011;49449;48.800;9.534;2023-06-19T06:02:41;5.43;;;4.95;;
63320;SDS011;49449;48.800;9.534;2023-06-19T06:05:09;7.55;;;4.93;;
63320;SDS011;49449;48.800;9.534;2023-06-19T06:07:37;4.32;;;3.92;;
63320;SDS011;49449;48.800;9.534;2023-06-19T06:10:06;5.10;;;4.60;;
63320;SDS011;49449;48.800;9.534;2023-06-19T06:12:34;4.60;;;4.20;;
63320;SDS011;49449;48.800;9.534;2023-06-19T06:15:03;4.55;;;4.15;;
63320;SDS011;49449;48.800;9.534;2023-06-19T06:17:34;4.68;;;4.18;;
63320;SDS011;49449;48.800;9.534;2023-06-19T06:20:02;4.50;;;4.10;;
63320;SDS011;49449;48.800;9.534;2023-06-19T06:22:35;4.65;;;4.20;;
63320;SDS011;49449;48.800;9.534;2023-06-19T06:25:03;5.20;;;4.32;;
63320;SDS011;49449;48.800;9.534;2023-06-19T06:27:31;4.28;;;3.90;;
63320;SDS011;49449;48.800;9.534;2023-06-19T06:29:59;4.53;;;4.13;;
63320;SDS011;49449;48.800;9.534;2023-06-19T06:32:27;3.67;;;3.38;;
63320;SDS011;49449;48.800;9.534;2023-06-19T06:34:58;3.67;;;3.38;;
63320;SDS011;49449;48.800;9.534;2023-06-19T06:37:26;3.67;;;3.38;;
63320;SDS011;49449;48.800;9.534;2023-06-19T06:39:54;4.53;;;4.13;;
63320;SDS011;49449;48.800;9.534;2023-06-19T06:42:22;4.25;;;3.88;;
63320;SDS011;49449;48.800;9.534;2023-06-19T06:44:49;4.10;;;3.70;;
63320;SDS011;49449;48.800;9.534;2023-06-19T06:47:17;3.92;;;3.63;;
63320;SDS011;49449;48.800;9.534;2023-06-19T06:49:45;4.05;;;3.65;;
63320;SDS011;49449;48.800;9.534;2023-06-19T06:52:14;4.05;;;3.75;;
63320;SDS011;49449;48.800;9.534;2023-06-19T06:54:42;4.22;;;3.42;;
63320;SDS011;49449;48.800;9.534;2023-06-19T06:57:10;4.63;;;3.35;;
63320;SDS011;49449;48.800;9.534;2023-06-19T06:59:38;4.03;;;3.63;;
63320;SDS011;49449;48.800;9.534;2023-06-19T07:02:06;3.75;;;3.42;;
63320;SDS011;49449;48.800;9.534;2023-06-19T07:04:34;3.72;;;3.42;;
63320;SDS011;49449;48.800;9.534;2023-06-19T07:07:01;3.30;;;3.05;;
63320;SDS011;49449;48.800;9.534;2023-06-19T07:09:32;3.78;;;3.53;;
63320;SDS011;49449;48.800;9.534;2023-06-19T07:11:59;3.90;;;3.15;;
63320;SDS011;49449;48.800;9.534;2023-06-19T07:14:30;3.50;;;3.20;;
63320;SDS011;49449;48.800;9.534;2023-06-19T07:16:58;4.10;;;3.70;;
63320;SDS011;49449;48.800;9.534;2023-06-19T07:19:26;3.17;;;2.90;;
63320;SDS011;49449;48.800;9.534;2023-06-19T07:21:53;3.13;;;2.78;;
63320;SDS011;49449;48.800;9.534;2023-06-19T07:24:21;3.88;;;3.40;;
63320;SDS011;49449;48.800;9.534;2023-06-19T07:26:51;4.72;;;3.60;;
63320;SDS011;49449;48.800;9.534;2023-06-19T07:29:19;3.80;;;3.50;;
63320;SDS011;49449;48.800;9.534;2023-06-19T07:31:47;3.28;;;3.00;;
63320;SDS011;49449;48.800;9.534;2023-06-19T07:34:15;3.35;;;2.90;;
63320;SDS011;49449;48.800;9.534;2023-06-19T07:36:43;3.40;;;3.10;;
63320;SDS011;49449;48.800;9.534;2023-06-19T07:39:11;3.97;;;3.20;;
63320;SDS011;49449;48.800;9.534;2023-06-19T07:41:38;2.90;;;2.70;;
63320;SDS011;49449;48.800;9.534;2023-06-19T07:44:07;3.53;;;3.22;;
63320;SDS011;49449;48.800;9.534;2023-06-19T07:46:35;2.97;;;2.78;;
63320;SDS011;49449;48.800;9.534;2023-06-19T07:49:03;4.32;;;3.15;;
63320;SDS011;49449;48.800;9.534;2023-06-19T07:51:31;3.33;;;3.13;;
63320;SDS011;49449;48.800;9.534;2023-06-19T07:53:59;2.83;;;2.63;;
63320;SDS011;49449;48.800;9.534;2023-06-19T07:56:26;3.95;;;3.33;;
63320;SDS011;49449;48.800;9.534;2023-06-19T07:58:54;4.13;;;3.15;;
63320;SDS011;49449;48.800;9.534;2023-06-19T08:01:24;2.97;;;2.70;;
63320;SDS011;49449;48.800;9.534;2023-06-19T08:03:51;3.13;;;2.72;;
63320;SDS011;49449;48.800;9.534;2023-06-19T08:06:19;6.03;;;3.25;;
63320;SDS011;49449;48.800;9.534;2023-06-19T08:08:47;3.92;;;3.10;;
63320;SDS011;49449;48.800;9.534;2023-06-19T08:11:15;3.05;;;2.63;;
63320;SDS011;49449;48.800;9.534;2023-06-19T08:13:42;3.30;;;3.00;;
63320;SDS011;49449;48.800;9.534;2023-06-19T08:16:10;3.20;;;2.90;;
63320;SDS011;49449;48.800;9.534;2023-06-19T08:18:39;2.70;;;2.50;;
63320;SDS011;49449;48.800;9.534;2023-06-19T08:21:07;2.70;;;2.50;;
63320;SDS011;49449;48.800;9.534;2023-06-19T08:23:35;3.00;;;2.80;;
63320;SDS011;49449;48.800;9.534;2023-06-19T08:26:04;2.97;;;2.65;;
63320;SDS011;49449;48.800;9.534;2023-06-19T08:28:32;3.30;;;3.10;;
63320;SDS011;49449;48.800;9.534;2023-06-19T08:30:59;3.42;;;3.03;;
63320;SDS011;49449;48.800;9.534;2023-06-19T08:33:27;2.95;;;2.75;;
63320;SDS011;49449;48.800;9.534;2023-06-19T08:35:57;4.10;;;2.75;;
63320;SDS011;49449;48.800;9.534;2023-06-19T08:38:24;3.35;;;2.90;;
63320;SDS011;49449;48.800;9.534;2023-06-19T08:40:53;3.95;;;3.28;;
63320;SDS011;49449;48.800;9.534;2023-06-19T08:43:21;2.95;;;2.75;;
63320;SDS011;49449;48.800;9.534;2023-06-19T08:45:52;3.65;;;3.35;;
63320;SDS011;49449;48.800;9.534;2023-06-19T08:48:31;2.78;;;2.60;;
63320;SDS011;49449;48.800;9.534;2023-06-19T08:51:03;3.05;;;2.85;;
63320;SDS011;49449;48.800;9.534;2023-06-19T08:53:32;3.28;;;3.00;;
63320;SDS011;49449;48.800;9.534;2023-06-19T08:56:02;2.80;;;2.60;;
63320;SDS011;49449;48.800;9.534;2023-06-19T08:58:29;2.40;;;2.20;;
63320;SDS011;49449;48.800;9.534;2023-06-19T09:00:57;3.03;;;2.72;;
63320;SDS011;49449;48.800;9.534;2023-06-19T09:03:25;2.65;;;2.45;;
63320;SDS011;49449;48.800;9.534;2023-06-19T09:05:53;2.72;;;2.53;;
63320;SDS011;49449;48.800;9.534;2023-06-19T09:08:22;1.90;;;1.80;;
63320;SDS011;49449;48.800;9.534;2023-06-19T09:10:56;1.85;;;1.75;;
63320;SDS011;49449;48.800;9.534;2023-06-19T09:13:25;4.85;;;2.20;;
63320;SDS011;49449;48.800;9.534;2023-06-19T09:15:58;2.40;;;2.30;;
63320;SDS011;49449;48.800;9.534;2023-06-19T09:18:28;3.15;;;2.38;;
63320;SDS011;49449;48.800;9.534;2023-06-19T09:20:57;3.17;;;2.58;;
63320;SDS011;49449;48.800;9.534;2023-06-19T09:23:26;2.30;;;2.20;;
63320;SDS011;49449;48.800;9.534;2023-06-19T09:25:54;2.33;;;1.80;;
63320;SDS011;49449;48.800;9.534;2023-06-19T09:28:25;2.13;;;1.98;;
63320;SDS011;49449;48.800;9.534;2023-06-19T09:30:55;2.47;;;2.28;;
63320;SDS011;49449;48.800;9.534;2023-06-19T09:33:25;2.22;;;2.03;;
63320;SDS011;49449;48.800;9.534;2023-06-19T09:35:55;2.13;;;2.03;;
63320;SDS011;49449;48.800;9.534;2023-06-19T09:38:24;2.30;;;2.20;;
63320;SDS011;49449;48.800;9.534;2023-06-19T09:40:55;2.40;;;2.30;;
63320;SDS011;49449;48.800;9.534;2023-06-19T09:43:25;2.08;;;1.98;;
63320;SDS011;49449;48.800;9.534;2023-06-19T09:45:57;2.70;;;2.50;;
63320;SDS011;49449;48.800;9.534;2023-06-19T09:48:27;2.33;;;2.22;;
63320;SDS011;49449;48.800;9.534;2023-06-19T09:50:59;2.20;;;2.10;;
63320;SDS011;49449;48.800;9.534;2023-06-19T09:53:29;2.47;;;2.20;;
63320;SDS011;49449;48.800;9.534;2023-06-19T09:55:59;2.83;;;2.63;;
63320;SDS011;49449;48.800;9.534;2023-06-19T09:58:27;2.15;;;2.05;;
63320;SDS011;49449;48.800;9.534;2023-06-19T10:00:57;2.55;;;2.35;;
63320;SDS011;49449;48.800;9.534;2023-06-19T10:03:35;2.60;;;2.40;;
63320;SDS011;49449;48.800;9.534;2023-06-19T10:06:04;2.85;;;2.33;;
63320;SDS011;49449;48.800;9.534;2023-06-19T10:08:40;3.10;;;2.90;;
63320;SDS011;49449;48.800;9.534;2023-06-19T10:11:11;3.35;;;2.50;;
63320;SDS011;49449;48.800;9.534;2023-06-19T10:13:40;2.63;;;2.42;;
63320;SDS011;49449;48.800;9.534;2023-06-19T10:16:19;3.13;;;2.80;;
63320;SDS011;49449;48.800;9.534;2023-06-19T10:18:47;3.30;;;2.58;;
63320;SDS011;49449;48.800;9.534;2023-06-19T10:21:16;2.55;;;2.35;;
63320;SDS011;49449;48.800;9.534;2023-06-19T10:23:51;3.60;;;2.60;;
63320;SDS011;49449;48.800;9.534;2023-06-19T10:26:28;3.03;;;2.38;;
63320;SDS011;49449;48.800;9.534;2023-06-19T10:28:57;2.35;;;2.25;;
63320;SDS011;49449;48.800;9.534;2023-06-19T10:31:25;3.83;;;2.95;;
63320;SDS011;49449;48.800;9.534;2023-06-19T10:33:54;2.55;;;2.35;;
63320;SDS011;49449;48.800;9.534;2023-06-19T10:36:22;2.17;;;2.08;;
63320;SDS011;49449;48.800;9.534;2023-06-19T10:38:52;2.40;;;2.20;;
63320;SDS011;49449;48.800;9.534;2023-06-19T10:41:22;2.58;;;2.38;;
63320;SDS011;49449;48.800;9.534;2023-06-19T10:43:52;2.78;;;2.58;;
63320;SDS011;49449;48.800;9.534;2023-06-19T10:46:22;2.67;;;2.47;;
63320;SDS011;49449;48.800;9.534;2023-06-19T10:48:50;2.75;;;2.55;;
63320;SDS011;49449;48.800;9.534;2023-06-19T10:51:22;2.67;;;2.47;;
63320;SDS011;49449;48.800;9.534;2023-06-19T10:53:52;2.92;;;2.63;;
63320;SDS011;49449;48.800;9.534;2023-06-19T10:56:23;2.63;;;2.42;;
63320;SDS011;49449;48.800;9.534;2023-06-19T11:01:30;2.72;;;2.53;;
63320;SDS011;49449;48.800;9.534;2023-06-19T11:04:01;2.70;;;2.50;;
63320;SDS011;49449;48.800;9.534;2023-06-19T11:06:30;2.90;;;2.35;;
63320;SDS011;49449;48.800;9.534;2023-06-19T11:08:58;3.47;;;2.97;;
63320;SDS011;49449;48.800;9.534;2023-06-19T11:11:35;2.78;;;2.25;;
63320;SDS011;49449;48.800;9.534;2023-06-19T11:14:04;2.95;;;2.70;;
63320;SDS011;49449;48.800;9.534;2023-06-19T11:16:32;2.80;;;2.60;;
63320;SDS011;49449;48.800;9.534;2023-06-19T11:19:01;2.53;;;2.35;;
63320;SDS011;49449;48.800;9.534;2023-06-19T11:21:29;2.90;;;2.70;;
63320;SDS011;49449;48.800;9.534;2023-06-19T11:23:59;3.05;;;2.42;;
63320;SDS011;49449;48.800;9.534;2023-06-19T11:26:27;2.67;;;2.50;;
63320;SDS011;49449;48.800;9.534;2023-06-19T11:28:56;2.58;;;2.35;;
63320;SDS011;49449;48.800;9.534;2023-06-19T11:31:27;2.90;;;2.70;;
63320;SDS011;49449;48.800;9.534;2023-06-19T11:33:58;2.65;;;2.45;;
63320;SDS011;49449;48.800;9.534;2023-06-19T11:36:27;3.17;;;2.88;;
63320;SDS011;49449;48.800;9.534;2023-06-19T11:38:56;2.97;;;2.75;;
63320;SDS011;49449;48.800;9.534;2023-06-19T11:41:27;4.72;;;3.70;;
63320;SDS011;49449;48.800;9.534;2023-06-19T11:44:00;3.20;;;3.00;;
63320;SDS011;49449;48.800;9.534;2023-06-19T11:46:30;3.10;;;2.90;;
63320;SDS011;49449;48.800;9.534;2023-06-19T11:49:09;2.95;;;2.75;;
63320;SDS011;49449;48.800;9.534;2023-06-19T11:51:38;3.72;;;3.00;;
63320;SDS011;49449;48.800;9.534;2023-06-19T11:54:06;3.08;;;2.78;;
63320;SDS011;49449;48.800;9.534;2023-06-19T11:56:35;2.85;;;2.65;;
63320;SDS011;49449;48.800;9.534;2023-06-19T11:59:05;3.10;;;2.60;;
63320;SDS011;49449;48.800;9.534;2023-06-19T12:01:33;3.58;;;3.28;;
63320;SDS011;49449;48.800;9.534;2023-06-19T12:04:02;2.58;;;2.40;;
63320;SDS011;49449;48.800;9.534;2023-06-19T12:06:31;3.45;;;3.15;;
63320;SDS011;49449;48.800;9.534;2023-06-19T12:09:01;2.83;;;2.47;;
63320;SDS011;49449;48.800;9.534;2023-06-19T12:11:31;2.97;;;2.78;;
63320;SDS011;49449;48.800;9.534;2023-06-19T12:13:59;3.28;;;2.97;;
63320;SDS011;49449;48.800;9.534;2023-06-19T12:16:28;3.47;;;2.30;;
63320;SDS011;49449;48.800;9.534;2023-06-19T12:18:56;3.13;;;2.92;;
63320;SDS011;49449;48.800;9.534;2023-06-19T12:21:24;3.70;;;3.33;;
63320;SDS011;49449;48.800;9.534;2023-06-19T12:24:00;3.50;;;3.20;;
63320;SDS011;49449;48.800;9.534;2023-06-19T12:26:28;3.03;;;2.83;;
63320;SDS011;49449;48.800;9.534;2023-06-19T12:28:56;3.05;;;2.85;;
63320;SDS011;49449;48.800;9.534;2023-06-19T12:31:23;3.70;;;3.40;;
63320;SDS011;49449;48.800;9.534;2023-06-19T12:33:53;3.20;;;3.00;;
63320;SDS011;49449;48.800;9.534;2023-06-19T12:36:22;2.88;;;2.67;;
63320;SDS011;49449;48.800;9.534;2023-06-19T12:38:51;4.40;;;2.97;;
63320;SDS011;49449;48.800;9.534;2023-06-19T12:41:20;3.03;;;2.63;;
63320;SDS011;49449;48.800;9.534;2023-06-19T12:43:48;2.55;;;2.38;;
63320;SDS011;49449;48.800;9.534;2023-06-19T12:46:16;2.67;;;2.58;;
63320;SDS011;49449;48.800;9.534;2023-06-19T12:48:44;3.30;;;3.10;;
63320;SDS011;49449;48.800;9.534;2023-06-19T12:51:18;3.17;;;2.88;;
63320;SDS011;49449;48.800;9.534;2023-06-19T12:53:46;2.80;;;2.60;;
63320;SDS011;49449;48.800;9.534;2023-06-19T12:56:13;3.10;;;2.90;;
63320;SDS011;49449;48.800;9.534;2023-06-19T12:58:41;3.47;;;3.00;;
63320;SDS011;49449;48.800;9.534;2023-06-19T13:01:09;3.40;;;3.10;;
63320;SDS011;49449;48.800;9.534;2023-06-19T13:03:37;2.90;;;2.70;;
63320;SDS011;49449;48.800;9.534;2023-06-19T13:06:05;3.53;;;3.33;;
63320;SDS011;49449;48.800;9.534;2023-06-19T13:08:34;3.03;;;2.83;;
63320;SDS011;49449;48.800;9.534;2023-06-19T13:11:02;5.75;;;3.08;;
63320;SDS011;49449;48.800;9.534;2023-06-19T13:13:30;3.35;;;2.97;;
63320;SDS011;49449;48.800;9.534;2023-06-19T13:15:57;2.88;;;2.67;;
63320;SDS011;49449;48.800;9.534;2023-06-19T13:18:25;3.30;;;3.10;;
63320;SDS011;49449;48.800;9.534;2023-06-19T13:20:53;3.03;;;2.83;;
63320;SDS011;49449;48.800;9.534;2023-06-19T13:23:21;3.83;;;3.15;;
63320;SDS011;49449;48.800;9.534;2023-06-19T13:25:50;2.95;;;2.75;;
63320;SDS011;49449;48.800;9.534;2023-06-19T13:28:18;2.90;;;2.70;;
63320;SDS011;49449;48.800;9.534;2023-06-19T13:30:46;4.22;;;3.65;;
63320;SDS011;49449;48.800;9.534;2023-06-19T13:33:14;3.90;;;3.60;;
63320;SDS011;49449;48.800;9.534;2023-06-19T13:35:42;3.78;;;3.20;;
63320;SDS011;49449;48.800;9.534;2023-06-19T13:38:10;3.22;;;2.97;;
63320;SDS011;49449;48.800;9.534;2023-06-19T13:40:38;3.80;;;3.50;;
63320;SDS011;49449;48.800;9.534;2023-06-19T13:43:07;2.92;;;2.72;;
63320;SDS011;49449;48.800;9.534;2023-06-19T13:45:35;2.92;;;2.72;;
63320;SDS011;49449;48.800;9.534;2023-06-19T13:48:04;3.67;;;3.38;;
63320;SDS011;49449;48.800;9.534;2023-06-19T13:50:32;3.58;;;3.28;;
63320;SDS011;49449;48.800;9.534;2023-06-19T13:53:01;3.33;;;3.13;;
63320;SDS011;49449;48.800;9.534;2023-06-19T13:55:29;3.15;;;2.95;;
63320;SDS011;49449;48.800;9.534;2023-06-19T13:57:56;3.60;;;3.30;;
63320;SDS011;49449;48.800;9.534;2023-06-19T14:00:26;3.15;;;2.85;;
63320;SDS011;49449;48.800;9.534;2023-06-19T14:02:53;3.25;;;2.97;;
63320;SDS011;49449;48.800;9.534;2023-06-19T14:05:21;3.53;;;3.22;;
63320;SDS011;49449;48.800;9.534;2023-06-19T14:07:49;3.50;;;3.20;;
63320;SDS011;49449;48.800;9.534;2023-06-19T14:10:18;3.20;;;3.00;;
63320;SDS011;49449;48.800;9.534;2023-06-19T14:12:45;2.90;;;2.70;;
63320;SDS011;49449;48.800;9.534;2023-06-19T14:15:13;3.47;;;3.17;;
63320;SDS011;49449;48.800;9.534;2023-06-19T14:17:42;3.00;;;2.80;;
63320;SDS011;49449;48.800;9.534;2023-06-19T14:20:11;3.25;;;2.95;;
63320;SDS011;49449;48.800;9.534;2023-06-19T14:22:39;3.45;;;3.00;;
63320;SDS011;49449;48.800;9.534;2023-06-19T14:25:07;3.75;;;3.53;;
63320;SDS011;49449;48.800;9.534;2023-06-19T14:27:35;3.83;;;3.30;;
63320;SDS011;49449;48.800;9.534;2023-06-19T14:30:04;3.70;;;3.28;;
63320;SDS011;49449;48.800;9.534;2023-06-19T14:35:04;3.08;;;2.88;;
63320;SDS011;49449;48.800;9.534;2023-06-19T14:37:33;3.15;;;2.85;;
63320;SDS011;49449;48.800;9.534;2023-06-19T14:40:00;2.80;;;2.60;;
63320;SDS011;49449;48.800;9.534;2023-06-19T14:42:29;2.83;;;2.60;;
63320;SDS011;49449;48.800;9.534;2023-06-19T14:44:57;3.30;;;3.00;;
63320;SDS011;49449;48.800;9.534;2023-06-19T14:47:25;2.80;;;2.60;;
63320;SDS011;49449;48.800;9.534;2023-06-19T14:49:53;3.20;;;3.00;;
63320;SDS011;49449;48.800;9.534;2023-06-19T14:52:22;2.72;;;2.53;;
63320;SDS011;49449;48.800;9.534;2023-06-19T14:54:50;3.30;;;3.10;;
63320;SDS011;49449;48.800;9.534;2023-06-19T14:57:17;3.00;;;2.80;;
63320;SDS011;49449;48.800;9.534;2023-06-19T14:59:45;3.58;;;3.35;;
63320;SDS011;49449;48.800;9.534;2023-06-19T15:02:13;3.30;;;3.10;;